sensor_id;sensor_type;location;lat;lon;timestamp;temperature;humidity
1614;DHT22;800;48.824;9.346;2022-10-16T00:00:44;21.80;68.70
1614;DHT22;800;48.824;9.346;2022-10-16T00:03:10;21.80;68.50
1614;DHT22;800;48.824;9.346;2022-10-16T00:05:41;21.80;68.50
1614;DHT22;800;48.824;9.346;2022-10-16T00:08:08;21.80;68.30
1614;DHT22;800;48.824;9.346;2022-10-16T00:10:35;21.80;68.40
1614;DHT22;800;48.824;9.346;2022-10-16T00:13:00;21.80;68.50
1614;DHT22;800;48.824;9.346;2022-10-16T00:15:26;21.80;68.40
1614;DHT22;800;48.824;9.346;2022-10-16T00:17:52;21.80;67.90
1614;DHT22;800;48.824;9.346;2022-10-16T00:20:17;21.80;68.00
1614;DHT22;800;48.824;9.346;2022-10-16T00:22:43;21.80;68.00
1614;DHT22;800;48.824;9.346;2022-10-16T00:25:08;21.80;67.80
1614;DHT22;800;48.824;9.346;2022-10-16T00:27:34;21.80;67.90
1614;DHT22;800;48.824;9.346;2022-10-16T00:30:00;21.70;68.00
1614;DHT22;800;48.824;9.346;2022-10-16T00:32:26;21.70;68.20
1614;DHT22;800;48.824;9.346;2022-10-16T00:34:51;21.70;68.20
1614;DHT22;800;48.824;9.346;2022-10-16T00:37:19;21.60;67.60
1614;DHT22;800;48.824;9.346;2022-10-16T00:39:45;21.50;68.20
1614;DHT22;800;48.824;9.346;2022-10-16T00:42:15;21.40;69.10
1614;DHT22;800;48.824;9.346;2022-10-16T00:44:45;21.40;69.30
1614;DHT22;800;48.824;9.346;2022-10-16T00:47:17;21.50;69.70
1614;DHT22;800;48.824;9.346;2022-10-16T00:49:44;21.40;69.00
1614;DHT22;800;48.824;9.346;2022-10-16T00:52:10;21.50;69.30
1614;DHT22;800;48.824;9.346;2022-10-16T00:54:36;21.50;68.80
1614;DHT22;800;48.824;9.346;2022-10-16T00:57:04;21.60;68.50
1614;DHT22;800;48.824;9.346;2022-10-16T01:01:57;21.60;68.20
1614;DHT22;800;48.824;9.346;2022-10-16T01:04:24;21.60;68.10
1614;DHT22;800;48.824;9.346;2022-10-16T01:18:02;21.40;68.60
1614;DHT22;800;48.824;9.346;2022-10-16T01:20:32;21.50;68.60
1614;DHT22;800;48.824;9.346;2022-10-16T01:23:07;21.50;68.40
1614;DHT22;800;48.824;9.346;2022-10-16T01:31:20;21.40;69.10
1614;DHT22;800;48.824;9.346;2022-10-16T01:33:53;21.50;69.50
1614;DHT22;800;48.824;9.346;2022-10-16T01:36:26;21.50;69.10
1614;DHT22;800;48.824;9.346;2022-10-16T01:38:56;21.60;69.00
1614;DHT22;800;48.824;9.346;2022-10-16T01:41:30;21.60;69.20
1614;DHT22;800;48.824;9.346;2022-10-16T01:44:16;21.60;69.00
1614;DHT22;800;48.824;9.346;2022-10-16T01:46:46;21.60;69.00
1614;DHT22;800;48.824;9.346;2022-10-16T01:49:13;21.50;69.20
1614;DHT22;800;48.824;9.346;2022-10-16T01:51:40;21.50;69.60
1614;DHT22;800;48.824;9.346;2022-10-16T01:54:09;21.40;69.90
1614;DHT22;800;48.824;9.346;2022-10-16T01:56:37;21.30;70.30
1614;DHT22;800;48.824;9.346;2022-10-16T01:59:11;21.20;70.50
1614;DHT22;800;48.824;9.346;2022-10-16T02:01:40;21.20;70.60
1614;DHT22;800;48.824;9.346;2022-10-16T02:04:15;21.30;70.40
1614;DHT22;800;48.824;9.346;2022-10-16T02:06:42;21.20;70.40
1614;DHT22;800;48.824;9.346;2022-10-16T02:09:08;21.20;70.80
1614;DHT22;800;48.824;9.346;2022-10-16T02:11:34;21.20;70.90
1614;DHT22;800;48.824;9.346;2022-10-16T02:14:06;21.20;70.40
1614;DHT22;800;48.824;9.346;2022-10-16T02:16:41;21.20;70.00
1614;DHT22;800;48.824;9.346;2022-10-16T02:19:08;21.10;70.10
1614;DHT22;800;48.824;9.346;2022-10-16T02:21:44;20.90;71.30
1614;DHT22;800;48.824;9.346;2022-10-16T02:27:19;21.00;71.50
1614;DHT22;800;48.824;9.346;2022-10-16T02:29:52;20.90;71.80
1614;DHT22;800;48.824;9.346;2022-10-16T02:32:23;21.00;71.40
1614;DHT22;800;48.824;9.346;2022-10-16T02:34:50;20.80;72.50
1614;DHT22;800;48.824;9.346;2022-10-16T02:37:17;20.80;72.40
1614;DHT22;800;48.824;9.346;2022-10-16T02:39:43;20.80;72.30
1614;DHT22;800;48.824;9.346;2022-10-16T02:42:13;21.00;72.10
1614;DHT22;800;48.824;9.346;2022-10-16T02:44:39;20.90;72.20
1614;DHT22;800;48.824;9.346;2022-10-16T02:47:05;20.90;72.40
1614;DHT22;800;48.824;9.346;2022-10-16T02:49:31;20.70;72.80
1614;DHT22;800;48.824;9.346;2022-10-16T02:51:57;20.70;73.60
1614;DHT22;800;48.824;9.346;2022-10-16T02:54:22;20.70;73.30
1614;DHT22;800;48.824;9.346;2022-10-16T02:56:49;20.80;72.90
1614;DHT22;800;48.824;9.346;2022-10-16T02:59:15;20.70;73.00
1614;DHT22;800;48.824;9.346;2022-10-16T03:01:40;20.80;72.80
1614;DHT22;800;48.824;9.346;2022-10-16T03:04:06;20.80;72.50
1614;DHT22;800;48.824;9.346;2022-10-16T03:06:32;20.70;73.20
1614;DHT22;800;48.824;9.346;2022-10-16T03:08:57;20.70;72.90
1614;DHT22;800;48.824;9.346;2022-10-16T03:11:23;20.80;72.60
1614;DHT22;800;48.824;9.346;2022-10-16T03:13:48;20.80;72.90
1614;DHT22;800;48.824;9.346;2022-10-16T03:16:14;20.70;73.00
1614;DHT22;800;48.824;9.346;2022-10-16T03:18:39;20.50;73.60
1614;DHT22;800;48.824;9.346;2022-10-16T03:21:05;20.50;74.50
1614;DHT22;800;48.824;9.346;2022-10-16T03:23:31;20.70;73.90
1614;DHT22;800;48.824;9.346;2022-10-16T03:25:56;20.80;73.00
1614;DHT22;800;48.824;9.346;2022-10-16T03:28:22;20.90;72.50
1614;DHT22;800;48.824;9.346;2022-10-16T03:30:47;21.00;72.20
1614;DHT22;800;48.824;9.346;2022-10-16T03:33:13;21.00;71.70
1614;DHT22;800;48.824;9.346;2022-10-16T03:35:38;21.00;71.40
1614;DHT22;800;48.824;9.346;2022-10-16T03:38:04;21.00;71.00
1614;DHT22;800;48.824;9.346;2022-10-16T03:40:30;21.00;71.10
1614;DHT22;800;48.824;9.346;2022-10-16T03:42:57;21.00;71.00
1614;DHT22;800;48.824;9.346;2022-10-16T03:45:23;21.00;71.30
1614;DHT22;800;48.824;9.346;2022-10-16T03:47:49;20.90;70.80
1614;DHT22;800;48.824;9.346;2022-10-16T03:50:15;20.90;71.10
1614;DHT22;800;48.824;9.346;2022-10-16T03:52:40;20.80;71.50
1614;DHT22;800;48.824;9.346;2022-10-16T03:55:06;20.70;71.90
1614;DHT22;800;48.824;9.346;2022-10-16T03:57:32;20.80;71.80
1614;DHT22;800;48.824;9.346;2022-10-16T03:59:58;20.80;71.70
1614;DHT22;800;48.824;9.346;2022-10-16T04:02:24;20.80;71.70
1614;DHT22;800;48.824;9.346;2022-10-16T04:04:49;20.60;72.70
1614;DHT22;800;48.824;9.346;2022-10-16T04:07:15;20.70;72.70
1614;DHT22;800;48.824;9.346;2022-10-16T04:09:40;20.70;72.40
1614;DHT22;800;48.824;9.346;2022-10-16T04:12:07;20.70;72.40
1614;DHT22;800;48.824;9.346;2022-10-16T04:14:32;20.70;72.50
1614;DHT22;800;48.824;9.346;2022-10-16T04:16:58;20.80;72.30
1614;DHT22;800;48.824;9.346;2022-10-16T04:19:23;20.80;71.90
1614;DHT22;800;48.824;9.346;2022-10-16T04:21:49;20.80;71.50
1614;DHT22;800;48.824;9.346;2022-10-16T04:24:15;20.90;71.50
1614;DHT22;800;48.824;9.346;2022-10-16T04:26:40;20.90;71.30
1614;DHT22;800;48.824;9.346;2022-10-16T04:29:06;20.80;71.30
1614;DHT22;800;48.824;9.346;2022-10-16T04:31:32;20.90;71.20
1614;DHT22;800;48.824;9.346;2022-10-16T04:33:58;20.90;71.10
1614;DHT22;800;48.824;9.346;2022-10-16T04:36:24;20.90;71.00
1614;DHT22;800;48.824;9.346;2022-10-16T04:38:49;20.80;71.30
1614;DHT22;800;48.824;9.346;2022-10-16T04:41:15;20.70;71.70
1614;DHT22;800;48.824;9.346;2022-10-16T04:43:40;20.60;72.00
1614;DHT22;800;48.824;9.346;2022-10-16T04:46:06;20.60;72.00
1614;DHT22;800;48.824;9.346;2022-10-16T04:48:32;20.60;71.60
1614;DHT22;800;48.824;9.346;2022-10-16T04:50:58;20.60;72.00
1614;DHT22;800;48.824;9.346;2022-10-16T04:53:24;20.70;71.80
1614;DHT22;800;48.824;9.346;2022-10-16T04:55:50;20.70;71.50
1614;DHT22;800;48.824;9.346;2022-10-16T04:58:16;20.70;71.60
1614;DHT22;800;48.824;9.346;2022-10-16T05:00:42;20.60;72.20
1614;DHT22;800;48.824;9.346;2022-10-16T05:03:07;20.40;73.10
1614;DHT22;800;48.824;9.346;2022-10-16T05:05:34;20.20;73.60
1614;DHT22;800;48.824;9.346;2022-10-16T05:08:00;20.20;74.60
1614;DHT22;800;48.824;9.346;2022-10-16T05:10:26;20.40;73.90
1614;DHT22;800;48.824;9.346;2022-10-16T05:12:52;20.60;73.20
1614;DHT22;800;48.824;9.346;2022-10-16T05:15:18;20.70;72.60
1614;DHT22;800;48.824;9.346;2022-10-16T05:17:44;20.60;72.30
1614;DHT22;800;48.824;9.346;2022-10-16T05:20:09;20.70;72.30
1614;DHT22;800;48.824;9.346;2022-10-16T05:22:35;20.80;71.70
1614;DHT22;800;48.824;9.346;2022-10-16T05:25:01;20.80;71.70
1614;DHT22;800;48.824;9.346;2022-10-16T05:27:26;20.80;71.30
1614;DHT22;800;48.824;9.346;2022-10-16T05:29:52;20.80;71.10
1614;DHT22;800;48.824;9.346;2022-10-16T05:32:18;20.80;71.30
1614;DHT22;800;48.824;9.346;2022-10-16T05:34:44;20.70;71.60
1614;DHT22;800;48.824;9.346;2022-10-16T05:37:10;20.80;71.90
1614;DHT22;800;48.824;9.346;2022-10-16T05:39:37;20.50;72.40
1614;DHT22;800;48.824;9.346;2022-10-16T05:42:03;20.30;73.70
1614;DHT22;800;48.824;9.346;2022-10-16T05:44:28;20.30;73.50
1614;DHT22;800;48.824;9.346;2022-10-16T05:46:54;20.30;73.50
1614;DHT22;800;48.824;9.346;2022-10-16T05:49:20;20.30;73.10
1614;DHT22;800;48.824;9.346;2022-10-16T05:51:45;20.40;72.80
1614;DHT22;800;48.824;9.346;2022-10-16T05:54:11;20.50;72.30
1614;DHT22;800;48.824;9.346;2022-10-16T05:56:37;20.50;72.10
1614;DHT22;800;48.824;9.346;2022-10-16T05:59:03;20.60;71.70
1614;DHT22;800;48.824;9.346;2022-10-16T06:01:29;20.60;71.60
1614;DHT22;800;48.824;9.346;2022-10-16T06:03:56;20.50;72.00
1614;DHT22;800;48.824;9.346;2022-10-16T06:06:25;20.40;71.90
1614;DHT22;800;48.824;9.346;2022-10-16T06:08:52;20.50;72.30
1614;DHT22;800;48.824;9.346;2022-10-16T06:11:20;20.50;72.20
1614;DHT22;800;48.824;9.346;2022-10-16T06:13:51;20.60;71.90
1614;DHT22;800;48.824;9.346;2022-10-16T06:16:16;20.60;71.80
1614;DHT22;800;48.824;9.346;2022-10-16T06:18:42;20.70;71.70
1614;DHT22;800;48.824;9.346;2022-10-16T06:21:10;20.60;71.70
1614;DHT22;800;48.824;9.346;2022-10-16T06:23:36;20.60;72.00
1614;DHT22;800;48.824;9.346;2022-10-16T06:26:10;20.40;72.30
1614;DHT22;800;48.824;9.346;2022-10-16T06:28:37;20.40;72.90
1614;DHT22;800;48.824;9.346;2022-10-16T06:31:04;20.50;72.80
1614;DHT22;800;48.824;9.346;2022-10-16T06:33:30;20.50;72.70
1614;DHT22;800;48.824;9.346;2022-10-16T06:36:06;20.50;72.50
1614;DHT22;800;48.824;9.346;2022-10-16T06:38:32;20.30;73.40
1614;DHT22;800;48.824;9.346;2022-10-16T06:40:58;20.40;73.40
1614;DHT22;800;48.824;9.346;2022-10-16T06:43:24;20.40;73.40
1614;DHT22;800;48.824;9.346;2022-10-16T06:45:53;20.50;73.30
1614;DHT22;800;48.824;9.346;2022-10-16T06:48:19;20.40;73.60
1614;DHT22;800;48.824;9.346;2022-10-16T06:50:54;20.50;73.50
1614;DHT22;800;48.824;9.346;2022-10-16T06:53:20;20.50;73.30
1614;DHT22;800;48.824;9.346;2022-10-16T06:55:45;20.40;73.70
1614;DHT22;800;48.824;9.346;2022-10-16T06:58:11;20.40;73.90
1614;DHT22;800;48.824;9.346;2022-10-16T07:00:36;20.40;73.90
1614;DHT22;800;48.824;9.346;2022-10-16T07:03:02;20.50;73.20
1614;DHT22;800;48.824;9.346;2022-10-16T07:05:27;20.10;75.10
1614;DHT22;800;48.824;9.346;2022-10-16T07:07:53;19.90;76.40
1614;DHT22;800;48.824;9.346;2022-10-16T07:10:19;19.90;76.90
1614;DHT22;800;48.824;9.346;2022-10-16T07:12:44;19.90;76.50
1614;DHT22;800;48.824;9.346;2022-10-16T07:15:10;20.10;76.40
1614;DHT22;800;48.824;9.346;2022-10-16T07:17:36;20.10;75.80
1614;DHT22;800;48.824;9.346;2022-10-16T07:20:02;20.20;75.60
1614;DHT22;800;48.824;9.346;2022-10-16T07:22:28;20.20;75.40
1614;DHT22;800;48.824;9.346;2022-10-16T07:24:54;20.40;75.20
1614;DHT22;800;48.824;9.346;2022-10-16T07:27:19;20.40;74.50
1614;DHT22;800;48.824;9.346;2022-10-16T07:29:47;20.50;74.20
1614;DHT22;800;48.824;9.346;2022-10-16T07:32:13;20.50;74.40
1614;DHT22;800;48.824;9.346;2022-10-16T07:34:38;20.60;74.20
1614;DHT22;800;48.824;9.346;2022-10-16T07:37:04;20.70;73.70
1614;DHT22;800;48.824;9.346;2022-10-16T07:39:30;20.80;73.20
1614;DHT22;800;48.824;9.346;2022-10-16T07:41:55;20.90;73.10
1614;DHT22;800;48.824;9.346;2022-10-16T07:44:21;21.00;72.60
1614;DHT22;800;48.824;9.346;2022-10-16T07:46:47;21.10;72.10
1614;DHT22;800;48.824;9.346;2022-10-16T07:49:12;21.10;72.00
1614;DHT22;800;48.824;9.346;2022-10-16T07:51:38;21.10;71.90
1614;DHT22;800;48.824;9.346;2022-10-16T07:54:04;21.20;71.80
1614;DHT22;800;48.824;9.346;2022-10-16T07:56:31;21.10;72.20
1614;DHT22;800;48.824;9.346;2022-10-16T07:58:57;21.10;72.10
1614;DHT22;800;48.824;9.346;2022-10-16T08:01:23;21.10;72.20
1614;DHT22;800;48.824;9.346;2022-10-16T08:03:50;21.00;73.20
1614;DHT22;800;48.824;9.346;2022-10-16T08:06:17;21.00;73.10
1614;DHT22;800;48.824;9.346;2022-10-16T08:08:43;21.10;72.90
1614;DHT22;800;48.824;9.346;2022-10-16T08:11:09;21.10;72.50
1614;DHT22;800;48.824;9.346;2022-10-16T08:13:35;21.10;72.00
1614;DHT22;800;48.824;9.346;2022-10-16T08:16:01;21.20;72.00
1614;DHT22;800;48.824;9.346;2022-10-16T08:18:27;21.30;71.90
1614;DHT22;800;48.824;9.346;2022-10-16T08:20:57;21.20;71.90
1614;DHT22;800;48.824;9.346;2022-10-16T08:23:23;21.20;72.30
1614;DHT22;800;48.824;9.346;2022-10-16T08:25:51;21.30;72.40
1614;DHT22;800;48.824;9.346;2022-10-16T08:28:17;21.20;72.50
1614;DHT22;800;48.824;9.346;2022-10-16T08:30:42;21.30;72.90
1614;DHT22;800;48.824;9.346;2022-10-16T08:33:08;21.50;72.50
1614;DHT22;800;48.824;9.346;2022-10-16T08:35:33;21.50;72.10
1614;DHT22;800;48.824;9.346;2022-10-16T08:37:59;21.60;72.50
1614;DHT22;800;48.824;9.346;2022-10-16T08:40:27;21.70;72.40
1614;DHT22;800;48.824;9.346;2022-10-16T08:48:14;21.80;72.00
1614;DHT22;800;48.824;9.346;2022-10-16T08:50:41;22.00;71.40
1614;DHT22;800;48.824;9.346;2022-10-16T08:53:14;22.10;70.30
1614;DHT22;800;48.824;9.346;2022-10-16T08:55:47;22.00;70.30
1614;DHT22;800;48.824;9.346;2022-10-16T08:58:17;22.00;70.80
1614;DHT22;800;48.824;9.346;2022-10-16T09:00:46;21.70;71.60
1614;DHT22;800;48.824;9.346;2022-10-16T09:12:02;21.70;72.30
1614;DHT22;800;48.824;9.346;2022-10-16T09:23:14;21.90;71.50
1614;DHT22;800;48.824;9.346;2022-10-16T09:25:43;21.90;70.90
1614;DHT22;800;48.824;9.346;2022-10-16T09:28:09;21.80;70.40
1614;DHT22;800;48.824;9.346;2022-10-16T09:30:36;21.80;71.60
1614;DHT22;800;48.824;9.346;2022-10-16T09:33:03;21.80;70.00
1614;DHT22;800;48.824;9.346;2022-10-16T09:35:37;22.00;69.40
1614;DHT22;800;48.824;9.346;2022-10-16T09:38:03;22.20;69.00
1614;DHT22;800;48.824;9.346;2022-10-16T09:40:39;22.40;67.10
1614;DHT22;800;48.824;9.346;2022-10-16T09:43:23;22.70;67.10
1614;DHT22;800;48.824;9.346;2022-10-16T09:45:59;23.00;64.60
1614;DHT22;800;48.824;9.346;2022-10-16T09:48:29;23.10;64.60
1614;DHT22;800;48.824;9.346;2022-10-16T09:50:59;23.20;63.30
1614;DHT22;800;48.824;9.346;2022-10-16T09:53:39;23.30;61.30
1614;DHT22;800;48.824;9.346;2022-10-16T09:56:05;23.30;61.40
1614;DHT22;800;48.824;9.346;2022-10-16T09:58:32;23.50;59.60
1614;DHT22;800;48.824;9.346;2022-10-16T10:00:59;23.40;60.00
1614;DHT22;800;48.824;9.346;2022-10-16T10:03:37;23.40;59.50
1614;DHT22;800;48.824;9.346;2022-10-16T10:06:21;23.60;59.50
1614;DHT22;800;48.824;9.346;2022-10-16T10:09:02;23.90;58.80
1614;DHT22;800;48.824;9.346;2022-10-16T10:14:23;24.50;56.80
1614;DHT22;800;48.824;9.346;2022-10-16T10:16:51;24.70;56.40
1614;DHT22;800;48.824;9.346;2022-10-16T10:19:20;24.90;56.00
1614;DHT22;800;48.824;9.346;2022-10-16T10:21:47;24.90;55.30
1614;DHT22;800;48.824;9.346;2022-10-16T10:24:17;25.00;55.80
1614;DHT22;800;48.824;9.346;2022-10-16T10:27:18;25.30;55.60
1614;DHT22;800;48.824;9.346;2022-10-16T10:35:39;25.90;53.60
1614;DHT22;800;48.824;9.346;2022-10-16T10:55:28;26.60;52.10
1614;DHT22;800;48.824;9.346;2022-10-16T11:01:24;26.70;51.30
1614;DHT22;800;48.824;9.346;2022-10-16T11:04:01;27.00;52.20
1614;DHT22;800;48.824;9.346;2022-10-16T11:06:43;27.30;51.80
1614;DHT22;800;48.824;9.346;2022-10-16T11:09:23;27.40;50.60
1614;DHT22;800;48.824;9.346;2022-10-16T11:11:58;27.80;50.50
1614;DHT22;800;48.824;9.346;2022-10-16T11:17:29;28.30;48.60
1614;DHT22;800;48.824;9.346;2022-10-16T11:22:33;28.50;48.20
1614;DHT22;800;48.824;9.346;2022-10-16T11:28:00;28.80;48.10
1614;DHT22;800;48.824;9.346;2022-10-16T11:30:27;29.00;47.70
1614;DHT22;800;48.824;9.346;2022-10-16T11:35:47;28.80;47.40
1614;DHT22;800;48.824;9.346;2022-10-16T11:41:35;29.30;46.70
1614;DHT22;800;48.824;9.346;2022-10-16T11:47:34;29.60;45.70
1614;DHT22;800;48.824;9.346;2022-10-16T11:50:27;29.80;45.90
1614;DHT22;800;48.824;9.346;2022-10-16T11:53:18;29.90;44.50
1614;DHT22;800;48.824;9.346;2022-10-16T11:55:47;30.00;45.10
1614;DHT22;800;48.824;9.346;2022-10-16T12:00:47;30.20;43.60
1614;DHT22;800;48.824;9.346;2022-10-16T12:06:13;30.40;43.50
1614;DHT22;800;48.824;9.346;2022-10-16T12:08:43;30.60;43.00
1614;DHT22;800;48.824;9.346;2022-10-16T12:11:24;30.30;41.90
1614;DHT22;800;48.824;9.346;2022-10-16T12:14:05;30.40;42.80
1614;DHT22;800;48.824;9.346;2022-10-16T12:16:32;30.50;42.80
1614;DHT22;800;48.824;9.346;2022-10-16T12:19:15;30.60;44.10
1614;DHT22;800;48.824;9.346;2022-10-16T12:21:42;30.60;42.70
1614;DHT22;800;48.824;9.346;2022-10-16T12:26:51;30.70;42.10
1614;DHT22;800;48.824;9.346;2022-10-16T12:29:32;30.80;43.60
1614;DHT22;800;48.824;9.346;2022-10-16T12:31:59;30.80;43.20
1614;DHT22;800;48.824;9.346;2022-10-16T12:34:42;30.60;42.00
1614;DHT22;800;48.824;9.346;2022-10-16T12:37:24;30.50;41.20
1614;DHT22;800;48.824;9.346;2022-10-16T12:39:52;30.30;41.20
1614;DHT22;800;48.824;9.346;2022-10-16T12:44:46;30.50;42.20
1614;DHT22;800;48.824;9.346;2022-10-16T12:47:34;30.50;43.10
1614;DHT22;800;48.824;9.346;2022-10-16T12:50:00;30.60;44.30
1614;DHT22;800;48.824;9.346;2022-10-16T12:52:37;30.60;44.30
1614;DHT22;800;48.824;9.346;2022-10-16T12:55:05;30.60;43.50
1614;DHT22;800;48.824;9.346;2022-10-16T13:00:42;30.60;43.70
1614;DHT22;800;48.824;9.346;2022-10-16T13:14:24;30.90;44.30
1614;DHT22;800;48.824;9.346;2022-10-16T13:19:51;30.90;43.50
1614;DHT22;800;48.824;9.346;2022-10-16T13:25:40;30.70;44.60
1614;DHT22;800;48.824;9.346;2022-10-16T13:28:13;30.80;44.30
1614;DHT22;800;48.824;9.346;2022-10-16T13:30:44;30.90;43.50
1614;DHT22;800;48.824;9.346;2022-10-16T13:33:14;31.10;43.30
1614;DHT22;800;48.824;9.346;2022-10-16T13:35:52;31.20;42.70
1614;DHT22;800;48.824;9.346;2022-10-16T13:38:22;31.30;42.00
1614;DHT22;800;48.824;9.346;2022-10-16T13:40:49;31.20;43.10
1614;DHT22;800;48.824;9.346;2022-10-16T13:43:17;31.10;43.80
1614;DHT22;800;48.824;9.346;2022-10-16T13:45:57;31.10;42.90
1614;DHT22;800;48.824;9.346;2022-10-16T13:48:23;31.10;42.90
1614;DHT22;800;48.824;9.346;2022-10-16T13:51:04;31.10;43.10
1614;DHT22;800;48.824;9.346;2022-10-16T13:53:35;31.10;43.20
1614;DHT22;800;48.824;9.346;2022-10-16T13:56:03;30.90;43.00
1614;DHT22;800;48.824;9.346;2022-10-16T13:58:29;30.90;41.30
1614;DHT22;800;48.824;9.346;2022-10-16T14:01:02;30.80;42.60
1614;DHT22;800;48.824;9.346;2022-10-16T14:03:30;30.90;42.90
1614;DHT22;800;48.824;9.346;2022-10-16T14:05:59;30.90;42.70
1614;DHT22;800;48.824;9.346;2022-10-16T14:08:27;30.90;42.90
1614;DHT22;800;48.824;9.346;2022-10-16T14:10:56;30.70;42.60
1614;DHT22;800;48.824;9.346;2022-10-16T14:13:31;30.70;42.60
1614;DHT22;800;48.824;9.346;2022-10-16T14:16:07;30.70;42.30
1614;DHT22;800;48.824;9.346;2022-10-16T14:18:33;30.70;42.20
1614;DHT22;800;48.824;9.346;2022-10-16T14:21:13;30.70;42.30
1614;DHT22;800;48.824;9.346;2022-10-16T14:23:40;30.70;42.60
1614;DHT22;800;48.824;9.346;2022-10-16T14:28:36;30.30;42.30
1614;DHT22;800;48.824;9.346;2022-10-16T14:33:49;30.00;44.00
1614;DHT22;800;48.824;9.346;2022-10-16T14:36:15;29.90;44.40
1614;DHT22;800;48.824;9.346;2022-10-16T14:38:59;29.90;44.60
1614;DHT22;800;48.824;9.346;2022-10-16T14:41:30;30.00;44.20
1614;DHT22;800;48.824;9.346;2022-10-16T14:44:00;29.90;44.10
1614;DHT22;800;48.824;9.346;2022-10-16T14:46:38;29.90;44.20
1614;DHT22;800;48.824;9.346;2022-10-16T14:49:17;29.70;44.60
1614;DHT22;800;48.824;9.346;2022-10-16T14:51:45;29.70;44.90
1614;DHT22;800;48.824;9.346;2022-10-16T14:54:15;29.70;44.90
1614;DHT22;800;48.824;9.346;2022-10-16T14:59:31;29.40;45.00
1614;DHT22;800;48.824;9.346;2022-10-16T15:01:57;29.10;45.30
1614;DHT22;800;48.824;9.346;2022-10-16T15:04:23;29.00;45.50
1614;DHT22;800;48.824;9.346;2022-10-16T15:06:49;29.10;45.90
1614;DHT22;800;48.824;9.346;2022-10-16T15:09:14;29.20;45.50
1614;DHT22;800;48.824;9.346;2022-10-16T15:11:41;29.30;45.20
1614;DHT22;800;48.824;9.346;2022-10-16T15:14:11;29.30;45.20
1614;DHT22;800;48.824;9.346;2022-10-16T15:16:38;29.30;45.40
1614;DHT22;800;48.824;9.346;2022-10-16T15:19:03;29.40;45.60
1614;DHT22;800;48.824;9.346;2022-10-16T15:21:31;29.50;45.60
1614;DHT22;800;48.824;9.346;2022-10-16T15:23:58;29.60;45.90
1614;DHT22;800;48.824;9.346;2022-10-16T15:26:26;29.60;45.80
1614;DHT22;800;48.824;9.346;2022-10-16T15:28:52;29.60;46.00
1614;DHT22;800;48.824;9.346;2022-10-16T15:31:18;29.60;46.00
1614;DHT22;800;48.824;9.346;2022-10-16T15:33:44;29.60;45.90
1614;DHT22;800;48.824;9.346;2022-10-16T15:36:12;29.60;45.70
1614;DHT22;800;48.824;9.346;2022-10-16T15:38:38;29.40;45.80
1614;DHT22;800;48.824;9.346;2022-10-16T15:41:04;29.30;46.40
1614;DHT22;800;48.824;9.346;2022-10-16T15:43:30;29.20;46.30
1614;DHT22;800;48.824;9.346;2022-10-16T15:46:04;29.20;46.80
1614;DHT22;800;48.824;9.346;2022-10-16T15:48:32;28.80;47.10
1614;DHT22;800;48.824;9.346;2022-10-16T15:50:58;28.50;47.90
1614;DHT22;800;48.824;9.346;2022-10-16T15:53:24;28.60;48.00
1614;DHT22;800;48.824;9.346;2022-10-16T15:55:50;28.60;48.00
1614;DHT22;800;48.824;9.346;2022-10-16T15:58:16;28.70;48.00
1614;DHT22;800;48.824;9.346;2022-10-16T16:00:42;28.70;48.10
1614;DHT22;800;48.824;9.346;2022-10-16T16:03:07;28.70;48.10
1614;DHT22;800;48.824;9.346;2022-10-16T16:05:33;28.70;48.20
1614;DHT22;800;48.824;9.346;2022-10-16T16:08:02;28.80;48.40
1614;DHT22;800;48.824;9.346;2022-10-16T16:10:27;28.70;48.40
1614;DHT22;800;48.824;9.346;2022-10-16T16:12:53;28.70;48.70
1614;DHT22;800;48.824;9.346;2022-10-16T16:15:20;28.60;48.90
1614;DHT22;800;48.824;9.346;2022-10-16T16:17:46;28.50;49.40
1614;DHT22;800;48.824;9.346;2022-10-16T16:20:11;28.40;49.80
1614;DHT22;800;48.824;9.346;2022-10-16T16:22:37;28.30;50.20
1614;DHT22;800;48.824;9.346;2022-10-16T16:25:03;28.30;50.30
1614;DHT22;800;48.824;9.346;2022-10-16T16:27:29;28.30;50.40
1614;DHT22;800;48.824;9.346;2022-10-16T16:29:58;28.30;50.60
1614;DHT22;800;48.824;9.346;2022-10-16T16:32:23;28.30;50.70
1614;DHT22;800;48.824;9.346;2022-10-16T16:34:49;28.20;50.90
1614;DHT22;800;48.824;9.346;2022-10-16T16:37:14;28.10;51.00
1614;DHT22;800;48.824;9.346;2022-10-16T16:39:40;28.00;51.10
1614;DHT22;800;48.824;9.346;2022-10-16T16:42:06;27.90;51.50
1614;DHT22;800;48.824;9.346;2022-10-16T16:44:33;27.80;51.70
1614;DHT22;800;48.824;9.346;2022-10-16T16:46:58;27.90;51.90
1614;DHT22;800;48.824;9.346;2022-10-16T16:49:24;27.90;51.80
1614;DHT22;800;48.824;9.346;2022-10-16T16:51:50;27.90;51.70
1614;DHT22;800;48.824;9.346;2022-10-16T16:54:15;27.80;52.00
1614;DHT22;800;48.824;9.346;2022-10-16T16:56:41;27.70;52.40
1614;DHT22;800;48.824;9.346;2022-10-16T16:59:18;27.60;52.50
1614;DHT22;800;48.824;9.346;2022-10-16T17:01:45;27.60;52.60
1614;DHT22;800;48.824;9.346;2022-10-16T17:04:10;27.60;52.70
1614;DHT22;800;48.824;9.346;2022-10-16T17:06:37;27.60;53.00
1614;DHT22;800;48.824;9.346;2022-10-16T17:09:03;27.40;53.50
1614;DHT22;800;48.824;9.346;2022-10-16T17:11:30;27.30;54.00
1614;DHT22;800;48.824;9.346;2022-10-16T17:13:57;27.20;54.20
1614;DHT22;800;48.824;9.346;2022-10-16T17:16:26;27.20;54.40
1614;DHT22;800;48.824;9.346;2022-10-16T17:18:52;27.20;54.80
1614;DHT22;800;48.824;9.346;2022-10-16T17:21:18;27.20;54.90
1614;DHT22;800;48.824;9.346;2022-10-16T17:23:44;27.20;54.80
1614;DHT22;800;48.824;9.346;2022-10-16T17:26:15;27.10;54.80
1614;DHT22;800;48.824;9.346;2022-10-16T17:28:42;27.00;54.80
1614;DHT22;800;48.824;9.346;2022-10-16T17:31:13;27.00;54.80
1614;DHT22;800;48.824;9.346;2022-10-16T17:33:39;27.10;55.00
1614;DHT22;800;48.824;9.346;2022-10-16T17:36:05;27.10;54.90
1614;DHT22;800;48.824;9.346;2022-10-16T17:38:31;27.10;54.70
1614;DHT22;800;48.824;9.346;2022-10-16T17:40:57;27.00;54.70
1614;DHT22;800;48.824;9.346;2022-10-16T17:43:22;27.00;54.70
1614;DHT22;800;48.824;9.346;2022-10-16T17:45:48;26.90;54.50
1614;DHT22;800;48.824;9.346;2022-10-16T17:48:14;26.90;54.20
1614;DHT22;800;48.824;9.346;2022-10-16T17:50:40;26.90;54.20
1614;DHT22;800;48.824;9.346;2022-10-16T17:53:06;26.80;54.10
1614;DHT22;800;48.824;9.346;2022-10-16T17:55:39;26.80;54.10
1614;DHT22;800;48.824;9.346;2022-10-16T17:58:06;26.80;54.10
1614;DHT22;800;48.824;9.346;2022-10-16T18:00:32;26.80;54.20
1614;DHT22;800;48.824;9.346;2022-10-16T18:02:58;26.70;54.10
1614;DHT22;800;48.824;9.346;2022-10-16T18:05:23;26.70;54.10
1614;DHT22;800;48.824;9.346;2022-10-16T18:07:49;26.70;54.10
1614;DHT22;800;48.824;9.346;2022-10-16T18:10:15;26.70;54.10
1614;DHT22;800;48.824;9.346;2022-10-16T18:12:40;26.70;54.10
1614;DHT22;800;48.824;9.346;2022-10-16T18:15:06;26.60;54.20
1614;DHT22;800;48.824;9.346;2022-10-16T18:17:34;26.50;54.50
1614;DHT22;800;48.824;9.346;2022-10-16T18:20:03;26.10;55.50
1614;DHT22;800;48.824;9.346;2022-10-16T18:22:31;25.90;55.90
1614;DHT22;800;48.824;9.346;2022-10-16T18:24:56;25.70;56.50
1614;DHT22;800;48.824;9.346;2022-10-16T18:27:22;25.60;56.80
1614;DHT22;800;48.824;9.346;2022-10-16T18:29:48;25.60;56.90
1614;DHT22;800;48.824;9.346;2022-10-16T18:32:14;25.60;57.20
1614;DHT22;800;48.824;9.346;2022-10-16T18:34:39;25.40;57.80